Trout Creek, Montana
Current Conditions -  °F | °C
As of 5:53 AM on Friday 24 Oct 2014 (Local Time) from KMLP Reporting Station
Overcast Overcast  
Wind Chill: 27°   Ceiling: 500
Heat Index: 32°   Visibility: 10mi
Dew Point: 31°   Wind: 5mph
Humidity: 96%   Direction: NA
Pressure: 30.04"   Gusts: NA
Location:  47.83°N, 115.61°W
Report Text: KMLP 241153Z AUTO VRB04KT 10SM BKN005 BKN012 OVC045 00/M01 A3004 RMK AO2 CIG 003V010 SLP138 70144 T00001006 10006 20000 51008
Loading
Personal Weather Stations






























Interactive Weather Map
Tropical Storm Tracking
New forecast layout! Learn more

10-Day Weather Forecast

Advertisements
Track Severe Weather on mobile